Time;durP1;ratioP1;P1;durP2;ratioP2;P2;SDS_P1;SDS_P2;PMS_P1;PMS_P2;Temp;Humidity;BMP_temperature;BMP_pressure;BME280_temperature;BME280_humidity;BME280_pressure;Samples;Min_cycle;Max_cycle;Signal;HPM_P1;HPM_P2
2021/01/24 00:00:28;;;;;;;;;;;1.00;96.00;;;;;;5155385;27;19942;-69
2021/01/24 00:02:54;;;;;;;;;;;1.00;96.00;;;;;;5163053;27;19923;-69
2021/01/24 00:05:21;;;;;;;;;;;1.00;96.00;;;;;;5163631;27;19963;-69
2021/01/24 00:07:47;;;;;;;;;;;0.90;96.00;;;;;;5159856;27;19991;-69
2021/01/24 00:10:17;;;;;;;;;;;0.90;96.10;;;;;;5138738;27;19983;-69
2021/01/24 00:12:46;;;;;;;;;;;0.80;96.10;;;;;;5160426;27;19927;-69
2021/01/24 00:15:12;;;;;;;;;;;0.80;96.20;;;;;;5128345;27;19923;-69
2021/01/24 00:17:38;;;;;;;;;;;0.80;96.30;;;;;;5135765;27;19980;-69
2021/01/24 00:20:05;;;;;;;;;;;0.70;96.20;;;;;;5136263;27;19930;-69
2021/01/24 00:22:32;;;;;;;;;;;0.70;96.40;;;;;;5138392;27;19930;-69
2021/01/24 00:24:58;;;;;;;;;;;0.70;96.40;;;;;;5134592;27;19926;-69
2021/01/24 00:27:24;;;;;;;;;;;0.60;96.40;;;;;;5155751;27;19962;-69
2021/01/24 00:29:51;;;;;;;;;;;0.60;96.30;;;;;;5156806;27;19927;-69
2021/01/24 00:32:18;;;;;;;;;;;0.50;96.20;;;;;;5152955;27;19927;-69
2021/01/24 00:34:47;;;;;;;;;;;0.50;96.30;;;;;;5138448;27;19931;-69
2021/01/24 00:37:13;;;;;;;;;;;0.50;96.50;;;;;;5152464;27;19955;-69
2021/01/24 00:39:39;;;;;;;;;;;0.50;96.50;;;;;;5156805;27;20019;-69
2021/01/24 00:42:06;;;;;;;;;;;0.50;96.40;;;;;;5152849;27;19927;-69
2021/01/24 00:44:34;;;;;;;;;;;0.50;96.50;;;;;;5137231;27;19979;-69
2021/01/24 00:47:01;;;;;;;;;;;0.50;96.40;;;;;;5146000;27;20000;-69
2021/01/24 00:49:27;;;;;;;;;;;0.50;96.40;;;;;;5117247;27;20439;-69
2021/01/24 00:51:53;;;;;;;;;;;0.50;96.50;;;;;;5135600;27;19954;-69
2021/01/24 00:54:21;;;;;;;;;;;0.50;96.40;;;;;;5138142;27;19968;-69
2021/01/24 00:56:47;;;;;;;;;;;0.50;96.40;;;;;;5134796;27;19927;-69
2021/01/24 00:59:13;;;;;;;;;;;0.50;96.40;;;;;;5155217;27;20015;-69
2021/01/24 01:01:40;;;;;;;;;;;0.60;96.40;;;;;;5137448;27;20045;-69
2021/01/24 01:04:09;;;;;;;;;;;0.60;96.40;;;;;;5117532;27;19923;-69
2021/01/24 01:06:37;;;;;;;;;;;0.60;96.40;;;;;;5117411;27;19927;-69
2021/01/24 01:09:03;;;;;;;;;;;0.70;96.30;;;;;;5147052;27;19927;-69
2021/01/24 01:11:30;;;;;;;;;;;0.70;96.30;;;;;;5155668;27;19969;-69
2021/01/24 01:13:56;;;;;;;;;;;0.70;96.20;;;;;;5152162;27;19923;-69
2021/01/24 01:16:25;;;;;;;;;;;0.70;96.10;;;;;;5137320;27;19970;-69
2021/01/24 01:18:51;;;;;;;;;;;0.80;96.00;;;;;;5134257;27;20010;-69
2021/01/24 01:21:17;;;;;;;;;;;0.80;95.90;;;;;;5136949;27;19930;-69
2021/01/24 01:23:43;;;;;;;;;;;0.80;95.80;;;;;;5162341;27;19963;-69
2021/01/24 01:26:12;;;;;;;;;;;0.80;96.00;;;;;;5154703;27;19969;-69
2021/01/24 01:28:38;;;;;;;;;;;0.90;96.10;;;;;;5151973;27;20064;-69
2021/01/24 01:31:05;;;;;;;;;;;0.80;96.20;;;;;;5155282;27;20027;-69
2021/01/24 01:33:31;;;;;;;;;;;0.90;96.40;;;;;;5155305;27;19979;-69
2021/01/24 01:35:57;;;;;;;;;;;0.90;96.50;;;;;;5151678;27;20343;-69
2021/01/24 01:38:24;;;;;;;;;;;0.90;96.50;;;;;;5155147;27;19970;-69
2021/01/24 01:40:53;;;;;;;;;;;0.90;96.40;;;;;;5151852;27;19967;-69
2021/01/24 01:43:19;;;;;;;;;;;0.90;96.30;;;;;;5155198;27;19923;-69
2021/01/24 01:45:46;;;;;;;;;;;0.90;96.40;;;;;;5133193;27;19962;-69
2021/01/24 01:48:14;;;;;;;;;;;0.90;96.40;;;;;;5154573;27;20405;-69
2021/01/24 01:50:41;;;;;;;;;;;0.80;96.50;;;;;;5133081;27;19927;-69
2021/01/24 01:53:07;;;;;;;;;;;0.80;96.70;;;;;;5155073;27;19991;-69
2021/01/24 01:55:33;;;;;;;;;;;0.80;96.70;;;;;;5150777;27;19927;-69
2021/01/24 01:58:02;;;;;;;;;;;0.80;96.80;;;;;;5155019;27;19960;-69
2021/01/24 02:00:28;;;;;;;;;;;0.80;96.70;;;;;;5133535;27;20340;-69
2021/01/24 02:03:10;;;;;;;;;;;0.90;96.60;;;;;;5154684;27;19966;-69
2021/01/24 02:05:49;;;;;;;;;;;1.00;96.50;;;;;;5135756;27;19927;-69
2021/01/24 02:08:21;;;;;;;;;;;1.00;96.40;;;;;;5133845;27;19923;-69
2021/01/24 02:11:11;;;;;;;;;;;1.00;96.40;;;;;;5133622;27;19928;-69
2021/01/24 02:13:47;;;;;;;;;;;0.90;96.70;;;;;;5098486;27;19928;-69
2021/01/24 02:16:14;;;;;;;;;;;0.90;96.80;;;;;;5115276;27;19996;-69
2021/01/24 02:18:42;;;;;;;;;;;0.90;96.70;;;;;;5152896;27;20244;-69
2021/01/24 02:21:12;;;;;;;;;;;0.80;96.60;;;;;;5136407;27;19966;-69
2021/01/24 02:23:39;;;;;;;;;;;0.80;96.80;;;;;;5154224;27;20327;-69
2021/01/24 02:26:26;;;;;;;;;;;0.80;96.90;;;;;;5153985;27;19966;-69
2021/01/24 02:28:53;;;;;;;;;;;0.80;96.90;;;;;;5150514;27;19995;-69
2021/01/24 02:31:19;;;;;;;;;;;0.80;96.80;;;;;;5154240;27;19970;-69
2021/01/24 02:33:48;;;;;;;;;;;0.80;96.80;;;;;;5151055;27;19981;-69
2021/01/24 02:36:15;;;;;;;;;;;0.80;96.50;;;;;;5153760;27;20316;-69
2021/01/24 02:38:42;;;;;;;;;;;0.80;96.30;;;;;;5150371;27;19976;-69
2021/01/24 02:41:09;;;;;;;;;;;0.80;96.60;;;;;;5154036;27;19964;-69
2021/01/24 02:43:41;;;;;;;;;;;0.90;96.10;;;;;;5143753;27;20348;-69
2021/01/24 02:46:07;;;;;;;;;;;0.80;96.40;;;;;;5133256;27;19928;-69
2021/01/24 02:48:34;;;;;;;;;;;0.80;96.50;;;;;;5134344;27;19983;-69
2021/01/24 02:51:00;;;;;;;;;;;0.70;96.80;;;;;;5153799;27;20000;-69
2021/01/24 02:53:28;;;;;;;;;;;0.70;97.10;;;;;;5150082;27;19923;-69
2021/01/24 02:55:54;;;;;;;;;;;0.70;97.00;;;;;;5135250;27;20461;-69
2021/01/24 02:58:21;;;;;;;;;;;0.70;96.90;;;;;;5135864;27;19997;-69
2021/01/24 03:00:47;;;;;;;;;;;0.70;96.90;;;;;;5132337;27;20375;-69
2021/01/24 03:03:13;;;;;;;;;;;0.70;97.00;;;;;;5135405;27;20419;-69
2021/01/24 03:05:39;;;;;;;;;;;0.70;97.00;;;;;;5150431;27;19927;-69
2021/01/24 03:08:06;;;;;;;;;;;0.70;96.70;;;;;;5136381;27;20340;-69
2021/01/24 03:10:32;;;;;;;;;;;0.70;96.80;;;;;;5121843;27;20496;-69
2021/01/24 03:13:22;;;;;;;;;;;0.60;96.80;;;;;;5132980;28;20329;-69
2021/01/24 03:15:50;;;;;;;;;;;0.60;96.90;;;;;;5111538;27;20008;-69
2021/01/24 03:18:19;;;;;;;;;;;0.60;97.10;;;;;;5153768;27;20308;-69
2021/01/24 03:20:46;;;;;;;;;;;0.60;97.30;;;;;;5150151;27;20014;-69
2021/01/24 03:23:13;;;;;;;;;;;0.60;96.90;;;;;;5135054;27;20347;-69
2021/01/24 03:25:40;;;;;;;;;;;0.50;96.80;;;;;;5127827;27;19980;-69
2021/01/24 03:28:07;;;;;;;;;;;0.50;97.00;;;;;;5132827;28;19985;-69
2021/01/24 03:30:36;;;;;;;;;;;0.50;97.20;;;;;;5112584;27;20404;-69
2021/01/24 03:33:03;;;;;;;;;;;0.50;97.20;;;;;;5153380;27;20018;-69
2021/01/24 03:35:29;;;;;;;;;;;0.50;97.40;;;;;;5153294;27;19923;-69
2021/01/24 03:37:56;;;;;;;;;;;0.40;97.40;;;;;;5150233;27;20316;-69
2021/01/24 03:40:22;;;;;;;;;;;0.40;97.40;;;;;;5135628;27;19931;-69
2021/01/24 03:42:49;;;;;;;;;;;0.50;97.10;;;;;;5116828;27;19931;-69
2021/01/24 03:45:18;;;;;;;;;;;0.50;97.20;;;;;;5115337;28;20259;-69
2021/01/24 03:47:45;;;;;;;;;;;0.50;97.30;;;;;;5141759;27;20283;-69
2021/01/24 03:50:11;;;;;;;;;;;0.40;97.20;;;;;;5136694;27;19966;-69
2021/01/24 03:52:38;;;;;;;;;;;0.50;97.20;;;;;;5153638;27;19927;-69
2021/01/24 03:55:05;;;;;;;;;;;0.40;97.10;;;;;;5150298;27;19956;-69
2021/01/24 03:57:31;;;;;;;;;;;0.50;97.10;;;;;;5126111;27;19939;-69
2021/01/24 03:59:58;;;;;;;;;;;0.50;96.50;;;;;;5118916;27;20514;-69
2021/01/24 04:02:24;;;;;;;;;;;0.50;96.20;;;;;;5134637;27;19966;-69
2021/01/24 04:04:50;;;;;;;;;;;0.50;96.30;;;;;;5157185;27;19927;-69
2021/01/24 04:07:17;;;;;;;;;;;0.50;96.20;;;;;;5157022;27;19946;-69
2021/01/24 04:09:43;;;;;;;;;;;0.40;96.30;;;;;;5153052;27;19922;-69
2021/01/24 04:12:09;;;;;;;;;;;0.40;96.50;;;;;;5138749;27;20027;-69
2021/01/24 04:14:36;;;;;;;;;;;0.40;96.10;;;;;;5153315;27;19923;-69
2021/01/24 04:17:03;;;;;;;;;;;0.40;96.20;;;;;;5139003;27;20020;-69
2021/01/24 04:19:30;;;;;;;;;;;0.40;96.20;;;;;;5153706;27;20343;-69
2021/01/24 04:21:56;;;;;;;;;;;0.30;96.40;;;;;;5156324;27;19976;-69
2021/01/24 04:24:23;;;;;;;;;;;0.20;96.40;;;;;;5152967;27;20359;-69
2021/01/24 04:26:50;;;;;;;;;;;0.20;96.60;;;;;;5156572;27;20304;-69
2021/01/24 04:29:16;;;;;;;;;;;0.20;96.60;;;;;;5135202;27;19981;-69
2021/01/24 04:31:42;;;;;;;;;;;0.30;96.20;;;;;;5156039;27;19972;-69
2021/01/24 04:34:11;;;;;;;;;;;0.30;96.00;;;;;;5153233;27;19931;-69
2021/01/24 04:36:38;;;;;;;;;;;0.20;96.20;;;;;;5156526;27;19962;-69
2021/01/24 04:39:04;;;;;;;;;;;0.20;96.50;;;;;;5137838;27;19963;-69
2021/01/24 04:41:34;;;;;;;;;;;0.20;96.30;;;;;;5152794;27;19927;-69
2021/01/24 04:44:01;;;;;;;;;;;0.10;96.30;;;;;;5138016;27;19923;-69
2021/01/24 04:46:28;;;;;;;;;;;0.10;96.50;;;;;;5152748;27;19927;-69
2021/01/24 04:48:54;;;;;;;;;;;0.20;96.20;;;;;;5137830;27;19927;-69
2021/01/24 04:51:23;;;;;;;;;;;0.20;96.20;;;;;;5133824;27;20396;-69
2021/01/24 04:53:50;;;;;;;;;;;0.20;96.00;;;;;;5155760;27;20392;-69
2021/01/24 04:56:18;;;;;;;;;;;0.20;96.20;;;;;;5160477;27;19926;-69
2021/01/24 04:58:45;;;;;;;;;;;0.10;96.20;;;;;;5176787;27;19937;-69
2021/01/24 05:01:13;;;;;;;;;;;0.20;96.40;;;;;;5167562;27;19943;-69
2021/01/24 05:03:42;;;;;;;;;;;0.20;96.30;;;;;;5137756;27;20254;-69
2021/01/24 05:06:09;;;;;;;;;;;0.10;96.30;;;;;;5152609;27;19931;-69
2021/01/24 05:08:35;;;;;;;;;;;0.10;96.30;;;;;;5137385;27;19958;-69
2021/01/24 05:11:05;;;;;;;;;;;0.00;96.30;;;;;;5155478;27;20392;-69
2021/01/24 05:13:31;;;;;;;;;;;0.00;96.50;;;;;;5134103;27;19958;-69
2021/01/24 05:15:58;;;;;;;;;;;0.00;96.70;;;;;;5137683;27;20024;-69
2021/01/24 05:18:28;;;;;;;;;;;0.00;96.70;;;;;;5117999;27;20017;-69
2021/01/24 05:20:56;;;;;;;;;;;0.10;96.50;;;;;;5134680;27;19978;-69
2021/01/24 05:23:23;;;;;;;;;;;0.10;96.30;;;;;;5157359;27;19926;-69
2021/01/24 05:25:52;;;;;;;;;;;0.10;95.80;;;;;;5176248;27;19959;-69
2021/01/24 05:28:20;;;;;;;;;;;0.10;96.00;;;;;;5153128;27;19926;-69
2021/01/24 05:30:49;;;;;;;;;;;0.00;95.90;;;;;;5158092;27;20262;-69
2021/01/24 05:33:16;;;;;;;;;;;0.00;95.90;;;;;;5164298;27;19962;-69
2021/01/24 05:35:47;;;;;;;;;;;-0.10;95.90;;;;;;5137397;27;20047;-69
2021/01/24 05:38:25;;;;;;;;;;;0.00;95.90;;;;;;5151806;27;19959;-69
2021/01/24 05:40:51;;;;;;;;;;;-0.10;95.80;;;;;;5154997;27;20408;-69
2021/01/24 05:43:18;;;;;;;;;;;-0.20;95.80;;;;;;5133293;27;19931;-69
2021/01/24 05:45:44;;;;;;;;;;;-0.20;96.00;;;;;;5154782;27;20010;-69
2021/01/24 05:48:14;;;;;;;;;;;-0.20;96.10;;;;;;5154889;27;20331;-69
2021/01/24 05:50:46;;;;;;;;;;;-0.20;96.00;;;;;;5154043;27;19923;-69
2021/01/24 05:53:13;;;;;;;;;;;-0.20;96.10;;;;;;5154955;27;20437;-69
2021/01/24 05:55:40;;;;;;;;;;;-0.10;95.90;;;;;;5151258;27;19931;-69
2021/01/24 05:58:16;;;;;;;;;;;-0.10;96.00;;;;;;5154154;27;19995;-68
2021/01/24 06:00:43;;;;;;;;;;;-0.20;96.10;;;;;;5133233;27;19923;-68
2021/01/24 06:03:13;;;;;;;;;;;0.00;96.20;;;;;;5136528;27;20038;-68
2021/01/24 06:05:40;;;;;;;;;;;0.00;95.70;;;;;;5132698;27;20033;-68
2021/01/24 06:08:07;;;;;;;;;;;0.00;95.70;;;;;;5151175;27;19927;-68
2021/01/24 06:10:36;;;;;;;;;;;0.00;95.60;;;;;;5139531;27;19931;-68
2021/01/24 06:13:03;;;;;;;;;;;-0.10;95.80;;;;;;5115240;27;19962;-68
2021/01/24 06:15:30;;;;;;;;;;;-0.10;95.90;;;;;;5137935;27;20114;-68
2021/01/24 06:17:57;;;;;;;;;;;0.00;96.10;;;;;;5120254;27;19980;-68
2021/01/24 06:20:25;;;;;;;;;;;0.10;95.70;;;;;;5115979;27;22401;-68
2021/01/24 06:23:03;;;;;;;;;;;0.10;95.70;;;;;;5136203;27;19967;-68
2021/01/24 06:25:37;;;;;;;;;;;0.10;95.50;;;;;;5150916;27;19959;-69
2021/01/24 06:28:23;;;;;;;;;;;0.10;95.80;;;;;;5154709;27;19970;-69
2021/01/24 06:30:50;;;;;;;;;;;0.00;95.80;;;;;;5150463;27;19931;-69
2021/01/24 06:33:22;;;;;;;;;;;0.00;96.00;;;;;;5154039;27;19927;-69
2021/01/24 06:35:52;;;;;;;;;;;0.00;96.10;;;;;;5153960;27;20193;-69
2021/01/24 06:38:29;;;;;;;;;;;-0.10;96.10;;;;;;5150562;27;20022;-69
2021/01/24 06:40:56;;;;;;;;;;;-0.10;96.10;;;;;;5135921;27;19979;-69
2021/01/24 06:43:42;;;;;;;;;;;-0.10;96.40;;;;;;5135269;27;19927;-69
2021/01/24 06:46:28;;;;;;;;;;;-0.20;96.40;;;;;;5124278;27;19992;-69
2021/01/24 06:48:55;;;;;;;;;;;-0.20;96.50;;;;;;5132375;27;20026;-69
2021/01/24 06:51:39;;;;;;;;;;;-0.20;96.50;;;;;;5135763;27;19973;-69
2021/01/24 06:54:06;;;;;;;;;;;-0.20;96.50;;;;;;5150306;27;19986;-69
2021/01/24 06:56:35;;;;;;;;;;;-0.20;96.40;;;;;;5135352;27;19970;-69
2021/01/24 06:59:02;;;;;;;;;;;-0.20;96.50;;;;;;5121159;27;19932;-68
2021/01/24 07:01:33;;;;;;;;;;;-0.20;96.50;;;;;;5133287;27;19927;-69
2021/01/24 07:04:18;;;;;;;;;;;-0.20;96.40;;;;;;5142808;27;19931;-69
2021/01/24 07:06:44;;;;;;;;;;;-0.20;96.30;;;;;;5134425;27;19927;-69
2021/01/24 07:09:26;;;;;;;;;;;-0.20;96.40;;;;;;5138745;27;20124;-69
2021/01/24 07:12:02;;;;;;;;;;;-0.20;96.60;;;;;;5114408;28;20027;-69
2021/01/24 07:14:31;;;;;;;;;;;-0.20;96.50;;;;;;5135399;27;19954;-69
2021/01/24 07:17:01;;;;;;;;;;;-0.10;96.60;;;;;;5146068;27;20283;-69
2021/01/24 07:19:29;;;;;;;;;;;0.00;96.20;;;;;;5149955;27;19946;-68
2021/01/24 07:22:00;;;;;;;;;;;0.00;96.30;;;;;;5135337;27;20359;-68
2021/01/24 07:24:27;;;;;;;;;;;-0.10;96.50;;;;;;5137888;27;19927;-68
2021/01/24 07:26:54;;;;;;;;;;;-0.10;96.50;;;;;;5137486;27;19927;-68
2021/01/24 07:29:21;;;;;;;;;;;-0.10;96.50;;;;;;5119228;27;20105;-68
2021/01/24 07:31:50;;;;;;;;;;;-0.20;96.50;;;;;;5157424;27;19934;-69
2021/01/24 07:34:24;;;;;;;;;;;-0.20;96.50;;;;;;5136862;27;20274;-68
2021/01/24 07:36:50;;;;;;;;;;;-0.20;96.50;;;;;;5118756;27;20343;-68
2021/01/24 07:39:18;;;;;;;;;;;-0.20;96.70;;;;;;5136404;27;19923;-69
2021/01/24 07:41:45;;;;;;;;;;;-0.10;96.70;;;;;;5151664;27;20386;-68
2021/01/24 07:44:11;;;;;;;;;;;-0.10;96.50;;;;;;5157037;27;20015;-69
2021/01/24 07:46:37;;;;;;;;;;;0.00;96.60;;;;;;5153595;27;20415;-69
2021/01/24 07:49:04;;;;;;;;;;;0.00;96.20;;;;;;5139019;27;19976;-68
2021/01/24 07:51:30;;;;;;;;;;;-0.10;96.40;;;;;;5153507;27;19962;-68
2021/01/24 07:53:59;;;;;;;;;;;0.00;96.70;;;;;;5149270;27;19923;-68
2021/01/24 07:56:25;;;;;;;;;;;0.10;96.60;;;;;;5141276;27;20010;-69
2021/01/24 07:58:54;;;;;;;;;;;0.20;96.50;;;;;;5128233;27;20039;-69
2021/01/24 08:01:23;;;;;;;;;;;0.40;96.00;;;;;;5142250;27;19954;-68
2021/01/24 08:03:50;;;;;;;;;;;0.50;95.80;;;;;;5166242;27;19927;-68
2021/01/24 08:06:17;;;;;;;;;;;0.50;95.80;;;;;;5160140;27;22451;-69
2021/01/24 08:08:44;;;;;;;;;;;0.60;95.70;;;;;;5166237;27;19962;-69
2021/01/24 08:11:12;;;;;;;;;;;0.70;95.50;;;;;;5148289;27;19942;-68
2021/01/24 08:13:39;;;;;;;;;;;0.80;95.50;;;;;;5164216;27;19984;-69
2021/01/24 08:16:16;;;;;;;;;;;1.00;95.10;;;;;;5164720;27;19923;-69
2021/01/24 08:18:46;;;;;;;;;;;1.20;94.20;;;;;;5153583;27;20359;-69
2021/01/24 08:21:13;;;;;;;;;;;1.40;92.90;;;;;;5155089;27;19954;-69
2021/01/24 08:23:39;;;;;;;;;;;1.50;92.50;;;;;;5133974;27;20019;-69
2021/01/24 08:26:07;;;;;;;;;;;1.80;91.10;;;;;;5155827;27;19927;-69
2021/01/24 08:28:33;;;;;;;;;;;2.10;90.40;;;;;;5152196;27;19966;-69
2021/01/24 08:31:03;;;;;;;;;;;2.30;89.50;;;;;;5137662;27;19927;-69
2021/01/24 08:33:32;;;;;;;;;;;2.60;87.70;;;;;;5133201;27;19931;-69
2021/01/24 08:36:13;;;;;;;;;;;2.70;86.60;;;;;;5137702;27;19934;-69
2021/01/24 08:38:39;;;;;;;;;;;2.90;86.70;;;;;;5134649;27;19958;-69
2021/01/24 08:41:06;;;;;;;;;;;2.90;86.60;;;;;;5156371;27;19923;-69
2021/01/24 08:43:34;;;;;;;;;;;3.00;85.50;;;;;;5152844;27;19927;-69
2021/01/24 08:46:19;;;;;;;;;;;3.10;84.70;;;;;;5138051;27;19956;-69
2021/01/24 08:49:01;;;;;;;;;;;3.10;83.50;;;;;;5134273;27;20006;-69
2021/01/24 08:51:44;;;;;;;;;;;3.20;83.00;;;;;;5155818;27;20359;-69
2021/01/24 08:54:14;;;;;;;;;;;3.30;81.80;;;;;;5133386;27;20037;-69
2021/01/24 08:56:40;;;;;;;;;;;3.50;81.20;;;;;;5137611;27;20375;-69
2021/01/24 08:59:20;;;;;;;;;;;3.60;80.80;;;;;;5152108;27;20256;-69
2021/01/24 09:01:50;;;;;;;;;;;3.70;78.50;;;;;;5137032;27;19927;-69
2021/01/24 09:04:22;;;;;;;;;;;3.70;77.90;;;;;;5152223;27;19927;-69
2021/01/24 09:06:58;;;;;;;;;;;3.70;76.30;;;;;;5156056;27;19962;-69
2021/01/24 09:09:28;;;;;;;;;;;3.70;77.90;;;;;;5155631;27;20021;-69
2021/01/24 09:11:55;;;;;;;;;;;3.70;76.90;;;;;;5154117;27;20013;-69
2021/01/24 09:14:23;;;;;;;;;;;3.80;77.20;;;;;;5137448;27;19974;-69
2021/01/24 09:17:03;;;;;;;;;;;3.80;77.40;;;;;;5133602;27;19959;-69
2021/01/24 09:19:30;;;;;;;;;;;3.80;77.40;;;;;;5155254;27;19937;-69
2021/01/24 09:21:56;;;;;;;;;;;3.90;76.80;;;;;;5151980;27;20391;-69
2021/01/24 09:24:23;;;;;;;;;;;3.90;75.70;;;;;;5137179;27;19923;-69
2021/01/24 09:26:50;;;;;;;;;;;3.90;76.60;;;;;;5151853;27;19935;-69
2021/01/24 09:29:19;;;;;;;;;;;4.00;75.90;;;;;;5154649;27;19927;-69
2021/01/24 09:31:45;;;;;;;;;;;4.00;74.50;;;;;;5133346;27;20645;-69
2021/01/24 09:34:11;;;;;;;;;;;4.00;74.60;;;;;;5155337;27;19923;-69
2021/01/24 09:36:37;;;;;;;;;;;4.10;73.80;;;;;;5150247;27;19974;-69
2021/01/24 09:39:04;;;;;;;;;;;4.10;74.50;;;;;;5155051;27;19927;-69
2021/01/24 09:41:31;;;;;;;;;;;4.20;72.40;;;;;;5152913;27;19962;-69
2021/01/24 09:43:57;;;;;;;;;;;4.20;70.30;;;;;;5127282;27;20044;-69
2021/01/24 09:46:26;;;;;;;;;;;4.10;68.70;;;;;;5116379;27;20015;-69
2021/01/24 09:48:52;;;;;;;;;;;4.10;69.00;;;;;;5149548;27;19923;-69
2021/01/24 09:51:19;;;;;;;;;;;4.20;69.10;;;;;;5154728;27;19970;-69
2021/01/24 09:53:49;;;;;;;;;;;4.20;68.60;;;;;;5132150;27;19927;-69
2021/01/24 09:56:17;;;;;;;;;;;4.20;67.70;;;;;;5154453;27;19927;-69
2021/01/24 09:58:44;;;;;;;;;;;4.40;69.00;;;;;;5151099;27;19970;-69
2021/01/24 10:01:10;;;;;;;;;;;4.30;67.60;;;;;;5154954;27;19927;-69
2021/01/24 10:03:37;;;;;;;;;;;4.30;68.60;;;;;;5150407;27;20010;-69
2021/01/24 10:06:03;;;;;;;;;;;4.40;68.10;;;;;;5154807;27;19981;-69
2021/01/24 10:08:31;;;;;;;;;;;4.40;66.90;;;;;;5133159;27;19999;-69
2021/01/24 10:10:57;;;;;;;;;;;4.50;69.00;;;;;;5154644;27;19923;-69
2021/01/24 10:13:23;;;;;;;;;;;4.50;67.60;;;;;;5133054;27;19938;-69
2021/01/24 10:15:52;;;;;;;;;;;4.60;67.70;;;;;;5154653;27;19966;-69
2021/01/24 10:18:19;;;;;;;;;;;4.60;66.70;;;;;;5154686;27;19923;-69
2021/01/24 10:20:46;;;;;;;;;;;4.60;66.40;;;;;;5113384;27;19923;-69
2021/01/24 10:23:12;;;;;;;;;;;4.70;67.50;;;;;;5153992;27;19927;-70
2021/01/24 10:25:39;;;;;;;;;;;4.80;65.10;;;;;;5153996;27;19966;-69
2021/01/24 10:28:05;;;;;;;;;;;4.80;66.50;;;;;;5154358;27;19923;-69
2021/01/24 10:30:32;;;;;;;;;;;4.80;65.60;;;;;;5150719;27;20403;-68
2021/01/24 10:32:59;;;;;;;;;;;4.70;64.50;;;;;;5145165;27;20027;-68
2021/01/24 10:35:27;;;;;;;;;;;4.60;65.30;;;;;;5140042;27;20050;-68
2021/01/24 10:37:54;;;;;;;;;;;4.70;64.50;;;;;;5153083;27;19990;-68
2021/01/24 10:40:20;;;;;;;;;;;4.70;65.20;;;;;;5150073;27;20718;-69
2021/01/24 10:42:49;;;;;;;;;;;4.80;63.80;;;;;;5136435;27;19999;-69
2021/01/24 10:45:18;;;;;;;;;;;4.70;64.10;;;;;;5150793;27;19927;-69
2021/01/24 10:47:47;;;;;;;;;;;4.80;65.70;;;;;;5135786;27;19954;-69
2021/01/24 10:50:14;;;;;;;;;;;4.90;64.10;;;;;;5150668;27;20029;-69
2021/01/24 10:52:40;;;;;;;;;;;4.90;63.00;;;;;;5135478;27;19967;-69
2021/01/24 10:55:07;;;;;;;;;;;4.70;63.40;;;;;;5153687;27;19923;-69
2021/01/24 10:57:34;;;;;;;;;;;4.70;64.10;;;;;;5149276;27;20320;-69
2021/01/24 11:00:00;;;;;;;;;;;4.80;62.80;;;;;;5173678;27;19988;-69
2021/01/24 11:02:28;;;;;;;;;;;4.70;62.90;;;;;;5124266;27;19927;-69
2021/01/24 11:04:55;;;;;;;;;;;4.70;64.00;;;;;;5133038;28;19923;-69
2021/01/24 11:07:23;;;;;;;;;;;4.70;63.50;;;;;;5122170;27;19979;-69
2021/01/24 11:09:50;;;;;;;;;;;4.60;62.40;;;;;;5153668;27;19930;-70
2021/01/24 11:12:16;;;;;;;;;;;4.50;63.30;;;;;;5132159;27;19923;-69
2021/01/24 11:14:42;;;;;;;;;;;4.40;62.30;;;;;;5153696;27;19927;-69
2021/01/24 11:17:09;;;;;;;;;;;4.40;63.30;;;;;;5131548;27;20350;-69
2021/01/24 11:19:38;;;;;;;;;;;4.40;61.80;;;;;;5153880;27;19927;-69
2021/01/24 11:22:04;;;;;;;;;;;4.40;61.50;;;;;;5150413;27;19962;-69
2021/01/24 11:24:31;;;;;;;;;;;4.50;61.90;;;;;;5135673;27;19931;-69
2021/01/24 11:26:57;;;;;;;;;;;4.60;62.40;;;;;;5153830;27;20329;-69
2021/01/24 11:29:24;;;;;;;;;;;4.70;61.70;;;;;;5150049;27;19996;-69
2021/01/24 11:31:51;;;;;;;;;;;4.80;61.40;;;;;;5153493;27;19990;-69
2021/01/24 11:34:17;;;;;;;;;;;4.90;61.30;;;;;;5117827;27;19974;-69
2021/01/24 11:36:44;;;;;;;;;;;5.20;61.60;;;;;;5114851;28;19923;-69
2021/01/24 11:39:10;;;;;;;;;;;5.30;58.80;;;;;;5140533;27;20350;-69
2021/01/24 11:41:36;;;;;;;;;;;5.50;58.00;;;;;;5134970;27;20359;-69
2021/01/24 11:44:03;;;;;;;;;;;5.50;56.90;;;;;;5131398;27;19927;-69
2021/01/24 11:46:29;;;;;;;;;;;5.40;57.20;;;;;;5134545;27;20003;-69
2021/01/24 11:48:55;;;;;;;;;;;5.50;55.60;;;;;;5149847;27;19927;-69
2021/01/24 11:51:22;;;;;;;;;;;5.60;56.60;;;;;;5134967;27;20283;-69
2021/01/24 11:53:48;;;;;;;;;;;5.50;56.00;;;;;;5150622;27;19923;-69
2021/01/24 11:56:17;;;;;;;;;;;5.40;56.40;;;;;;5151923;27;19996;-69
2021/01/24 11:58:43;;;;;;;;;;;5.30;57.30;;;;;;5134749;27;20320;-69
2021/01/24 12:01:12;;;;;;;;;;;5.00;58.00;;;;;;5131246;27;19935;-69
2021/01/24 12:03:38;;;;;;;;;;;4.90;58.40;;;;;;5134961;27;19927;-69
2021/01/24 12:06:07;;;;;;;;;;;4.90;57.80;;;;;;5149406;27;19938;-69
2021/01/24 12:08:33;;;;;;;;;;;4.90;58.10;;;;;;5135209;27;19927;-69
2021/01/24 12:11:00;;;;;;;;;;;4.90;58.50;;;;;;5150382;27;20411;-69
2021/01/24 12:13:26;;;;;;;;;;;4.80;56.80;;;;;;5156293;27;19923;-69
2021/01/24 12:15:52;;;;;;;;;;;4.60;57.30;;;;;;5152887;27;19927;-69
2021/01/24 12:18:19;;;;;;;;;;;4.60;57.30;;;;;;5156607;27;19922;-69
2021/01/24 12:20:48;;;;;;;;;;;4.50;56.70;;;;;;5134119;27;19927;-69
2021/01/24 12:23:14;;;;;;;;;;;4.50;56.50;;;;;;5137868;27;19948;-70
2021/01/24 12:25:41;;;;;;;;;;;4.50;57.80;;;;;;5135167;27;19933;-69
2021/01/24 12:28:07;;;;;;;;;;;4.60;57.20;;;;;;5156179;27;20423;-69
2021/01/24 12:30:33;;;;;;;;;;;5.10;55.60;;;;;;5138169;27;19931;-69
2021/01/24 12:33:00;;;;;;;;;;;5.30;55.20;;;;;;5152598;27;20046;-69
2021/01/24 12:35:26;;;;;;;;;;;5.30;55.40;;;;;;5155903;27;20030;-69
2021/01/24 12:37:53;;;;;;;;;;;5.20;55.20;;;;;;5152854;27;20021;-69
2021/01/24 12:40:20;;;;;;;;;;;5.20;54.70;;;;;;5156089;27;20053;-69
2021/01/24 12:42:46;;;;;;;;;;;5.20;56.00;;;;;;5152532;27;20316;-69
2021/01/24 12:45:16;;;;;;;;;;;5.20;56.40;;;;;;5137706;27;19927;-69
2021/01/24 12:47:44;;;;;;;;;;;5.20;55.40;;;;;;5134351;27;19923;-69
2021/01/24 12:50:14;;;;;;;;;;;5.30;55.10;;;;;;5156042;27;20009;-69
2021/01/24 12:52:41;;;;;;;;;;;5.60;54.40;;;;;;5134289;27;19977;-69
2021/01/24 12:55:08;;;;;;;;;;;5.70;52.30;;;;;;5155736;27;19956;-70
2021/01/24 12:57:34;;;;;;;;;;;5.70;53.30;;;;;;5152741;27;19934;-70
2021/01/24 13:00:01;;;;;;;;;;;6.60;51.70;;;;;;5155935;27;20295;-69
2021/01/24 13:02:27;;;;;;;;;;;7.60;47.10;;;;;;5155648;27;20011;-69
2021/01/24 13:04:54;;;;;;;;;;;7.20;46.60;;;;;;5152283;27;19938;-69
2021/01/24 13:07:20;;;;;;;;;;;6.60;46.10;;;;;;5155435;27;19939;-69
2021/01/24 13:09:49;;;;;;;;;;;6.50;47.60;;;;;;5134044;27;19956;-69
2021/01/24 13:12:15;;;;;;;;;;;6.20;46.50;;;;;;5155076;27;19927;-69
2021/01/24 13:14:42;;;;;;;;;;;6.50;47.70;;;;;;5152015;27;19954;-69
2021/01/24 13:17:08;;;;;;;;;;;6.90;47.00;;;;;;5137329;27;19962;-69
2021/01/24 13:19:35;;;;;;;;;;;6.80;46.80;;;;;;5132815;27;19927;-69
2021/01/24 13:22:01;;;;;;;;;;;7.10;46.20;;;;;;5154894;27;19962;-69
2021/01/24 13:24:28;;;;;;;;;;;7.50;43.90;;;;;;5151359;27;19954;-69
2021/01/24 13:26:57;;;;;;;;;;;7.60;43.90;;;;;;5137164;27;19923;-69
2021/01/24 13:29:24;;;;;;;;;;;7.50;44.50;;;;;;5133854;27;19996;-69
2021/01/24 13:31:52;;;;;;;;;;;7.10;43.20;;;;;;5136937;27;19959;-70
2021/01/24 13:34:21;;;;;;;;;;;7.20;44.50;;;;;;5154956;27;19974;-71
2021/01/24 13:36:48;;;;;;;;;;;6.90;44.40;;;;;;5114241;27;19933;-70
2021/01/24 13:39:14;;;;;;;;;;;6.40;44.60;;;;;;5134344;27;19974;-70
2021/01/24 13:41:41;;;;;;;;;;;6.20;46.10;;;;;;5147253;27;20397;-70
2021/01/24 13:44:08;;;;;;;;;;;6.00;47.50;;;;;;5154866;27;19934;-70
2021/01/24 13:46:34;;;;;;;;;;;5.80;48.30;;;;;;5151438;27;20393;-70
2021/01/24 13:49:00;;;;;;;;;;;5.70;48.10;;;;;;5154916;27;19931;-70
2021/01/24 13:51:29;;;;;;;;;;;5.50;49.40;;;;;;5151278;27;19927;-70
2021/01/24 13:53:55;;;;;;;;;;;5.50;50.60;;;;;;5154693;27;19966;-70
2021/01/24 13:56:24;;;;;;;;;;;5.30;50.50;;;;;;5137990;27;20014;-70
2021/01/24 13:58:53;;;;;;;;;;;5.20;50.40;;;;;;5176148;27;19986;-69
2021/01/24 14:01:19;;;;;;;;;;;5.20;50.20;;;;;;5168628;27;22080;-69
2021/01/24 14:03:45;;;;;;;;;;;5.00;50.60;;;;;;5136267;27;19923;-70
2021/01/24 14:06:12;;;;;;;;;;;5.00;49.20;;;;;;5136448;27;20316;-70
2021/01/24 14:08:38;;;;;;;;;;;5.20;50.00;;;;;;5150650;27;19970;-71
2021/01/24 14:11:04;;;;;;;;;;;5.40;50.10;;;;;;5136370;27;19930;-70
2021/01/24 14:13:30;;;;;;;;;;;5.40;49.00;;;;;;5132565;27;20439;-70
2021/01/24 14:15:56;;;;;;;;;;;5.60;49.60;;;;;;5154322;27;19999;-68
2021/01/24 14:18:23;;;;;;;;;;;5.70;49.80;;;;;;5132647;27;19926;-68
2021/01/24 14:20:49;;;;;;;;;;;5.50;48.70;;;;;;5136746;27;19927;-69
2021/01/24 14:23:15;;;;;;;;;;;5.60;50.30;;;;;;5132073;27;19966;-69
2021/01/24 14:25:42;;;;;;;;;;;5.50;49.20;;;;;;5153912;27;19952;-69
2021/01/24 14:28:09;;;;;;;;;;;5.30;49.30;;;;;;5150664;27;19995;-69
2021/01/24 14:30:35;;;;;;;;;;;5.00;48.40;;;;;;5154123;27;20321;-69
2021/01/24 14:33:05;;;;;;;;;;;4.80;49.10;;;;;;5149938;27;20029;-69